sensor_id;sensor_type;location;lat;lon;timestamp;temperature;humidity
26107;DHT22;13866;50.748;12.630;2023-04-25T00:01:54;6.10;99.90
26107;DHT22;13866;50.748;12.630;2023-04-25T00:04:21;6.20;99.90
26107;DHT22;13866;50.748;12.630;2023-04-25T00:06:47;6.10;99.90
26107;DHT22;13866;50.748;12.630;2023-04-25T00:09:13;6.10;99.90
26107;DHT22;13866;50.748;12.630;2023-04-25T00:11:39;6.10;99.90
26107;DHT22;13866;50.748;12.630;2023-04-25T00:14:05;6.10;99.90
26107;DHT22;13866;50.748;12.630;2023-04-25T00:16:31;6.00;99.90
26107;DHT22;13866;50.748;12.630;2023-04-25T00:18:59;6.00;99.90
26107;DHT22;13866;50.748;12.630;2023-04-25T00:21:25;6.10;99.90
26107;DHT22;13866;50.748;12.630;2023-04-25T00:23:52;6.10;99.90
26107;DHT22;13866;50.748;12.630;2023-04-25T00:26:18;6.00;99.90
26107;DHT22;13866;50.748;12.630;2023-04-25T00:28:43;6.00;99.90
26107;DHT22;13866;50.748;12.630;2023-04-25T00:31:08;6.00;99.90
26107;DHT22;13866;50.748;12.630;2023-04-25T00:33:34;6.10;99.90
26107;DHT22;13866;50.748;12.630;2023-04-25T00:36:00;6.00;99.90
26107;DHT22;13866;50.748;12.630;2023-04-25T00:38:25;6.00;99.90
26107;DHT22;13866;50.748;12.630;2023-04-25T00:40:51;5.90;99.90
26107;DHT22;13866;50.748;12.630;2023-04-25T00:43:18;5.90;99.90
26107;DHT22;13866;50.748;12.630;2023-04-25T00:45:43;5.90;99.90
26107;DHT22;13866;50.748;12.630;2023-04-25T00:48:13;5.90;99.90
26107;DHT22;13866;50.748;12.630;2023-04-25T00:50:39;5.90;99.90
26107;DHT22;13866;50.748;12.630;2023-04-25T00:53:05;6.00;99.90
26107;DHT22;13866;50.748;12.630;2023-04-25T00:55:31;6.00;99.90
26107;DHT22;13866;50.748;12.630;2023-04-25T00:57:57;6.00;99.90
26107;DHT22;13866;50.748;12.630;2023-04-25T01:00:23;6.10;99.90
26107;DHT22;13866;50.748;12.630;2023-04-25T01:02:49;6.10;99.90
26107;DHT22;13866;50.748;12.630;2023-04-25T01:05:15;6.10;99.90
26107;DHT22;13866;50.748;12.630;2023-04-25T01:07:41;6.10;99.90
26107;DHT22;13866;50.748;12.630;2023-04-25T01:10:07;6.20;99.90
26107;DHT22;13866;50.748;12.630;2023-04-25T01:12:33;6.30;99.90
26107;DHT22;13866;50.748;12.630;2023-04-25T01:14:58;6.30;99.90
26107;DHT22;13866;50.748;12.630;2023-04-25T01:17:24;6.40;99.90
26107;DHT22;13866;50.748;12.630;2023-04-25T01:19:50;6.40;99.90
26107;DHT22;13866;50.748;12.630;2023-04-25T01:22:15;6.50;99.90
26107;DHT22;13866;50.748;12.630;2023-04-25T01:24:42;6.60;99.90
26107;DHT22;13866;50.748;12.630;2023-04-25T01:27:08;6.60;99.90
26107;DHT22;13866;50.748;12.630;2023-04-25T01:29:35;6.60;99.90
26107;DHT22;13866;50.748;12.630;2023-04-25T01:32:01;6.60;99.90
26107;DHT22;13866;50.748;12.630;2023-04-25T01:34:27;6.60;99.90
26107;DHT22;13866;50.748;12.630;2023-04-25T01:36:53;6.60;99.90
26107;DHT22;13866;50.748;12.630;2023-04-25T01:39:19;6.60;99.90
26107;DHT22;13866;50.748;12.630;2023-04-25T01:41:46;6.60;99.90
26107;DHT22;13866;50.748;12.630;2023-04-25T01:44:13;6.70;99.90
26107;DHT22;13866;50.748;12.630;2023-04-25T01:46:39;6.70;99.90
26107;DHT22;13866;50.748;12.630;2023-04-25T01:49:05;6.70;99.90
26107;DHT22;13866;50.748;12.630;2023-04-25T01:51:30;6.70;99.90
26107;DHT22;13866;50.748;12.630;2023-04-25T01:53:57;6.80;99.90
26107;DHT22;13866;50.748;12.630;2023-04-25T01:56:22;6.80;99.90
26107;DHT22;13866;50.748;12.630;2023-04-25T01:58:48;6.80;99.90
26107;DHT22;13866;50.748;12.630;2023-04-25T02:01:14;6.80;99.90
26107;DHT22;13866;50.748;12.630;2023-04-25T02:03:39;6.90;99.90
26107;DHT22;13866;50.748;12.630;2023-04-25T02:06:05;6.90;99.90
26107;DHT22;13866;50.748;12.630;2023-04-25T02:08:31;6.90;99.90
26107;DHT22;13866;50.748;12.630;2023-04-25T02:10:57;6.90;99.90
26107;DHT22;13866;50.748;12.630;2023-04-25T02:13:22;6.90;99.90
26107;DHT22;13866;50.748;12.630;2023-04-25T02:15:48;7.00;99.90
26107;DHT22;13866;50.748;12.630;2023-04-25T02:18:13;6.90;99.90
26107;DHT22;13866;50.748;12.630;2023-04-25T02:20:41;6.90;99.90
26107;DHT22;13866;50.748;12.630;2023-04-25T02:23:07;6.90;99.90
26107;DHT22;13866;50.748;12.630;2023-04-25T02:25:33;6.90;99.90
26107;DHT22;13866;50.748;12.630;2023-04-25T02:27:58;6.90;99.90
26107;DHT22;13866;50.748;12.630;2023-04-25T02:30:24;6.90;99.90
26107;DHT22;13866;50.748;12.630;2023-04-25T02:32:49;7.00;99.90
26107;DHT22;13866;50.748;12.630;2023-04-25T02:35:15;7.00;99.90
26107;DHT22;13866;50.748;12.630;2023-04-25T02:37:41;7.00;99.90
26107;DHT22;13866;50.748;12.630;2023-04-25T02:40:07;7.00;99.90
26107;DHT22;13866;50.748;12.630;2023-04-25T02:42:33;7.00;99.90
26107;DHT22;13866;50.748;12.630;2023-04-25T02:44:59;7.00;99.90
26107;DHT22;13866;50.748;12.630;2023-04-25T02:47:24;7.00;99.90
26107;DHT22;13866;50.748;12.630;2023-04-25T02:49:50;7.00;99.90
26107;DHT22;13866;50.748;12.630;2023-04-25T02:52:15;7.00;99.90
26107;DHT22;13866;50.748;12.630;2023-04-25T02:54:41;7.00;99.90
26107;DHT22;13866;50.748;12.630;2023-04-25T02:57:06;7.00;99.90
26107;DHT22;13866;50.748;12.630;2023-04-25T02:59:32;7.00;99.90
26107;DHT22;13866;50.748;12.630;2023-04-25T03:01:58;7.00;99.90
26107;DHT22;13866;50.748;12.630;2023-04-25T03:04:23;7.00;99.90
26107;DHT22;13866;50.748;12.630;2023-04-25T03:06:50;7.00;99.90
26107;DHT22;13866;50.748;12.630;2023-04-25T03:09:15;7.00;99.90
26107;DHT22;13866;50.748;12.630;2023-04-25T03:11:41;7.00;99.90
26107;DHT22;13866;50.748;12.630;2023-04-25T03:14:07;7.00;99.90
26107;DHT22;13866;50.748;12.630;2023-04-25T03:16:32;7.00;99.90
26107;DHT22;13866;50.748;12.630;2023-04-25T03:18:57;6.90;99.90
26107;DHT22;13866;50.748;12.630;2023-04-25T03:21:23;6.90;99.90
26107;DHT22;13866;50.748;12.630;2023-04-25T03:23:49;6.90;99.90
26107;DHT22;13866;50.748;12.630;2023-04-25T03:26:14;6.90;99.90
26107;DHT22;13866;50.748;12.630;2023-04-25T03:28:40;6.90;99.90
26107;DHT22;13866;50.748;12.630;2023-04-25T03:31:06;6.90;99.90
26107;DHT22;13866;50.748;12.630;2023-04-25T03:33:31;6.90;99.90
26107;DHT22;13866;50.748;12.630;2023-04-25T03:35:57;6.90;99.90
26107;DHT22;13866;50.748;12.630;2023-04-25T03:38:23;6.90;99.90
26107;DHT22;13866;50.748;12.630;2023-04-25T03:40:49;6.90;99.90
26107;DHT22;13866;50.748;12.630;2023-04-25T03:43:16;6.90;99.90
26107;DHT22;13866;50.748;12.630;2023-04-25T03:45:41;6.90;99.90
26107;DHT22;13866;50.748;12.630;2023-04-25T03:48:07;6.90;99.90
26107;DHT22;13866;50.748;12.630;2023-04-25T03:50:32;6.90;99.90
26107;DHT22;13866;50.748;12.630;2023-04-25T03:52:58;6.90;99.90
26107;DHT22;13866;50.748;12.630;2023-04-25T03:55:23;6.80;99.90
26107;DHT22;13866;50.748;12.630;2023-04-25T03:57:49;6.90;99.90
26107;DHT22;13866;50.748;12.630;2023-04-25T04:00:14;6.80;99.90
26107;DHT22;13866;50.748;12.630;2023-04-25T04:02:40;6.80;99.90
26107;DHT22;13866;50.748;12.630;2023-04-25T04:05:06;6.80;99.90
26107;DHT22;13866;50.748;12.630;2023-04-25T04:07:32;6.80;99.90
26107;DHT22;13866;50.748;12.630;2023-04-25T04:09:58;6.80;99.90
26107;DHT22;13866;50.748;12.630;2023-04-25T04:12:24;6.80;99.90
26107;DHT22;13866;50.748;12.630;2023-04-25T04:14:49;6.80;99.90
26107;DHT22;13866;50.748;12.630;2023-04-25T04:17:15;6.80;99.90
26107;DHT22;13866;50.748;12.630;2023-04-25T04:19:40;6.80;99.90
26107;DHT22;13866;50.748;12.630;2023-04-25T04:22:06;6.90;99.90
26107;DHT22;13866;50.748;12.630;2023-04-25T04:24:31;6.90;99.90
26107;DHT22;13866;50.748;12.630;2023-04-25T04:26:58;6.90;99.90
26107;DHT22;13866;50.748;12.630;2023-04-25T04:29:24;6.80;99.90
26107;DHT22;13866;50.748;12.630;2023-04-25T04:31:50;6.80;99.90
26107;DHT22;13866;50.748;12.630;2023-04-25T04:34:17;6.90;99.90
26107;DHT22;13866;50.748;12.630;2023-04-25T04:36:44;6.80;99.90
26107;DHT22;13866;50.748;12.630;2023-04-25T04:39:11;6.80;99.90
26107;DHT22;13866;50.748;12.630;2023-04-25T04:41:37;6.90;99.90
26107;DHT22;13866;50.748;12.630;2023-04-25T04:44:03;6.80;99.90
26107;DHT22;13866;50.748;12.630;2023-04-25T04:46:29;6.80;99.90
26107;DHT22;13866;50.748;12.630;2023-04-25T04:48:55;6.80;99.90
26107;DHT22;13866;50.748;12.630;2023-04-25T04:51:21;6.90;99.90
26107;DHT22;13866;50.748;12.630;2023-04-25T04:53:47;6.80;99.90
26107;DHT22;13866;50.748;12.630;2023-04-25T04:56:12;6.80;99.90
26107;DHT22;13866;50.748;12.630;2023-04-25T04:58:37;6.80;99.90
26107;DHT22;13866;50.748;12.630;2023-04-25T05:01:03;6.80;99.90
26107;DHT22;13866;50.748;12.630;2023-04-25T05:03:29;6.80;99.90
26107;DHT22;13866;50.748;12.630;2023-04-25T05:05:54;6.80;99.90
26107;DHT22;13866;50.748;12.630;2023-04-25T05:08:20;6.80;99.90
26107;DHT22;13866;50.748;12.630;2023-04-25T05:10:45;6.70;99.90
26107;DHT22;13866;50.748;12.630;2023-04-25T05:13:11;6.80;99.90
26107;DHT22;13866;50.748;12.630;2023-04-25T05:15:37;6.80;99.90
26107;DHT22;13866;50.748;12.630;2023-04-25T05:18:02;6.80;99.90
26107;DHT22;13866;50.748;12.630;2023-04-25T05:20:28;6.90;99.90
26107;DHT22;13866;50.748;12.630;2023-04-25T05:22:53;6.80;99.90
26107;DHT22;13866;50.748;12.630;2023-04-25T05:25:19;6.90;99.90
26107;DHT22;13866;50.748;12.630;2023-04-25T05:27:44;6.90;99.90
26107;DHT22;13866;50.748;12.630;2023-04-25T05:30:10;7.00;99.90
26107;DHT22;13866;50.748;12.630;2023-04-25T05:32:35;7.00;99.90
26107;DHT22;13866;50.748;12.630;2023-04-25T05:35:01;7.10;99.90
26107;DHT22;13866;50.748;12.630;2023-04-25T05:37:28;7.10;99.90
26107;DHT22;13866;50.748;12.630;2023-04-25T05:39:55;7.20;99.90
26107;DHT22;13866;50.748;12.630;2023-04-25T05:42:21;7.30;99.90
26107;DHT22;13866;50.748;12.630;2023-04-25T05:44:46;7.30;99.90
26107;DHT22;13866;50.748;12.630;2023-04-25T05:47:12;7.30;99.90
26107;DHT22;13866;50.748;12.630;2023-04-25T05:49:37;7.30;99.90
26107;DHT22;13866;50.748;12.630;2023-04-25T05:52:03;7.30;99.90
26107;DHT22;13866;50.748;12.630;2023-04-25T05:54:28;7.20;99.90
26107;DHT22;13866;50.748;12.630;2023-04-25T05:56:53;7.20;99.90
26107;DHT22;13866;50.748;12.630;2023-04-25T05:59:19;7.30;99.90
26107;DHT22;13866;50.748;12.630;2023-04-25T06:01:45;7.20;99.90
26107;DHT22;13866;50.748;12.630;2023-04-25T06:04:11;7.20;99.90
26107;DHT22;13866;50.748;12.630;2023-04-25T06:06:37;7.00;99.90
26107;DHT22;13866;50.748;12.630;2023-04-25T06:09:02;7.00;99.90
26107;DHT22;13866;50.748;12.630;2023-04-25T06:11:28;6.90;99.90
26107;DHT22;13866;50.748;12.630;2023-04-25T06:13:53;6.80;99.90
26107;DHT22;13866;50.748;12.630;2023-04-25T06:16:19;6.70;99.90
26107;DHT22;13866;50.748;12.630;2023-04-25T06:18:44;6.60;99.90
26107;DHT22;13866;50.748;12.630;2023-04-25T06:21:10;6.50;99.90
26107;DHT22;13866;50.748;12.630;2023-04-25T06:23:35;6.40;99.90
26107;DHT22;13866;50.748;12.630;2023-04-25T06:26:01;6.50;99.90
26107;DHT22;13866;50.748;12.630;2023-04-25T06:28:26;6.50;99.90
26107;DHT22;13866;50.748;12.630;2023-04-25T06:30:52;6.50;99.90
26107;DHT22;13866;50.748;12.630;2023-04-25T06:33:17;6.60;99.90
26107;DHT22;13866;50.748;12.630;2023-04-25T06:35:43;6.60;99.90
26107;DHT22;13866;50.748;12.630;2023-04-25T06:38:08;6.60;99.90
26107;DHT22;13866;50.748;12.630;2023-04-25T06:40:34;6.70;99.90
26107;DHT22;13866;50.748;12.630;2023-04-25T06:42:59;6.80;99.90
26107;DHT22;13866;50.748;12.630;2023-04-25T06:45:25;6.80;99.90
26107;DHT22;13866;50.748;12.630;2023-04-25T06:47:50;6.80;99.90
26107;DHT22;13866;50.748;12.630;2023-04-25T06:50:16;6.80;99.90
26107;DHT22;13866;50.748;12.630;2023-04-25T06:52:41;6.80;99.90
26107;DHT22;13866;50.748;12.630;2023-04-25T06:55:07;6.90;99.90
26107;DHT22;13866;50.748;12.630;2023-04-25T06:57:33;6.90;99.90
26107;DHT22;13866;50.748;12.630;2023-04-25T07:00:11;7.00;99.90
26107;DHT22;13866;50.748;12.630;2023-04-25T07:02:37;7.00;99.90
26107;DHT22;13866;50.748;12.630;2023-04-25T07:05:03;7.00;99.90
26107;DHT22;13866;50.748;12.630;2023-04-25T07:07:29;7.00;99.90
26107;DHT22;13866;50.748;12.630;2023-04-25T07:09:55;7.00;99.90
26107;DHT22;13866;50.748;12.630;2023-04-25T07:12:21;7.00;99.90
26107;DHT22;13866;50.748;12.630;2023-04-25T07:14:47;7.20;99.90
26107;DHT22;13866;50.748;12.630;2023-04-25T07:17:12;7.50;99.90
26107;DHT22;13866;50.748;12.630;2023-04-25T07:19:38;7.80;99.90
26107;DHT22;13866;50.748;12.630;2023-04-25T07:22:05;7.90;99.90
26107;DHT22;13866;50.748;12.630;2023-04-25T07:24:31;8.00;99.90
26107;DHT22;13866;50.748;12.630;2023-04-25T07:26:56;8.00;99.90
26107;DHT22;13866;50.748;12.630;2023-04-25T07:29:23;7.90;99.90
26107;DHT22;13866;50.748;12.630;2023-04-25T07:31:48;8.00;99.90
26107;DHT22;13866;50.748;12.630;2023-04-25T07:34:14;8.00;99.90
26107;DHT22;13866;50.748;12.630;2023-04-25T07:36:40;8.10;99.90
26107;DHT22;13866;50.748;12.630;2023-04-25T07:39:06;8.40;99.90
26107;DHT22;13866;50.748;12.630;2023-04-25T07:41:32;8.60;99.90
26107;DHT22;13866;50.748;12.630;2023-04-25T07:43:57;8.70;99.90
26107;DHT22;13866;50.748;12.630;2023-04-25T07:46:23;9.10;99.90
26107;DHT22;13866;50.748;12.630;2023-04-25T07:48:49;9.60;99.90
26107;DHT22;13866;50.748;12.630;2023-04-25T07:51:15;9.70;99.90
26107;DHT22;13866;50.748;12.630;2023-04-25T07:53:40;9.80;99.90
26107;DHT22;13866;50.748;12.630;2023-04-25T07:56:06;10.10;99.90
26107;DHT22;13866;50.748;12.630;2023-04-25T07:58:31;10.20;99.90
26107;DHT22;13866;50.748;12.630;2023-04-25T08:00:57;10.00;99.90
26107;DHT22;13866;50.748;12.630;2023-04-25T08:03:22;9.80;99.90
26107;DHT22;13866;50.748;12.630;2023-04-25T08:05:48;9.50;99.90
26107;DHT22;13866;50.748;12.630;2023-04-25T08:08:13;9.10;99.90
26107;DHT22;13866;50.748;12.630;2023-04-25T08:10:39;8.70;99.90
26107;DHT22;13866;50.748;12.630;2023-04-25T08:13:04;8.60;99.90
26107;DHT22;13866;50.748;12.630;2023-04-25T08:15:33;8.40;99.90
26107;DHT22;13866;50.748;12.630;2023-04-25T08:17:58;8.20;99.90
26107;DHT22;13866;50.748;12.630;2023-04-25T08:20:40;8.10;99.90
26107;DHT22;13866;50.748;12.630;2023-04-25T08:23:06;8.00;99.90
26107;DHT22;13866;50.748;12.630;2023-04-25T08:25:32;8.00;99.90
26107;DHT22;13866;50.748;12.630;2023-04-25T08:27:58;7.90;99.90
26107;DHT22;13866;50.748;12.630;2023-04-25T08:30:24;7.80;99.90
26107;DHT22;13866;50.748;12.630;2023-04-25T08:32:50;7.80;99.90
26107;DHT22;13866;50.748;12.630;2023-04-25T08:35:16;7.80;99.90
26107;DHT22;13866;50.748;12.630;2023-04-25T08:37:42;7.80;99.90
26107;DHT22;13866;50.748;12.630;2023-04-25T08:40:11;7.80;99.90
26107;DHT22;13866;50.748;12.630;2023-04-25T08:42:37;7.90;99.90
26107;DHT22;13866;50.748;12.630;2023-04-25T08:45:03;7.80;99.90
26107;DHT22;13866;50.748;12.630;2023-04-25T08:47:30;7.80;99.90
26107;DHT22;13866;50.748;12.630;2023-04-25T08:49:59;7.70;99.90
26107;DHT22;13866;50.748;12.630;2023-04-25T08:52:28;7.80;99.90
26107;DHT22;13866;50.748;12.630;2023-04-25T08:54:57;8.00;99.90
26107;DHT22;13866;50.748;12.630;2023-04-25T08:57:23;8.30;99.90
26107;DHT22;13866;50.748;12.630;2023-04-25T08:59:49;8.40;99.90
26107;DHT22;13866;50.748;12.630;2023-04-25T09:02:15;8.70;99.90
26107;DHT22;13866;50.748;12.630;2023-04-25T09:04:45;8.50;99.90
26107;DHT22;13866;50.748;12.630;2023-04-25T09:07:10;8.40;99.90
26107;DHT22;13866;50.748;12.630;2023-04-25T09:09:36;8.20;99.90
26107;DHT22;13866;50.748;12.630;2023-04-25T09:12:01;8.20;99.90
26107;DHT22;13866;50.748;12.630;2023-04-25T09:14:27;8.10;99.90
26107;DHT22;13866;50.748;12.630;2023-04-25T09:19:22;8.30;99.90
26107;DHT22;13866;50.748;12.630;2023-04-25T09:21:49;8.20;99.90
26107;DHT22;13866;50.748;12.630;2023-04-25T09:24:15;8.20;99.90
26107;DHT22;13866;50.748;12.630;2023-04-25T09:26:40;7.90;99.90
26107;DHT22;13866;50.748;12.630;2023-04-25T09:29:07;7.80;99.90
26107;DHT22;13866;50.748;12.630;2023-04-25T09:31:33;7.50;99.90
26107;DHT22;13866;50.748;12.630;2023-04-25T09:33:59;7.60;99.90
26107;DHT22;13866;50.748;12.630;2023-04-25T09:36:38;7.70;99.90
26107;DHT22;13866;50.748;12.630;2023-04-25T09:39:12;7.80;99.90
26107;DHT22;13866;50.748;12.630;2023-04-25T09:41:41;7.90;99.90
26107;DHT22;13866;50.748;12.630;2023-04-25T09:44:06;7.90;99.90
26107;DHT22;13866;50.748;12.630;2023-04-25T09:46:35;8.00;99.90
26107;DHT22;13866;50.748;12.630;2023-04-25T09:49:06;7.80;99.90
26107;DHT22;13866;50.748;12.630;2023-04-25T09:51:32;8.10;99.90
26107;DHT22;13866;50.748;12.630;2023-04-25T09:53:57;8.30;99.90
26107;DHT22;13866;50.748;12.630;2023-04-25T09:56:23;8.40;99.90
26107;DHT22;13866;50.748;12.630;2023-04-25T09:58:50;8.50;99.90
26107;DHT22;13866;50.748;12.630;2023-04-25T10:01:19;8.60;99.90
26107;DHT22;13866;50.748;12.630;2023-04-25T10:03:47;8.40;99.90
26107;DHT22;13866;50.748;12.630;2023-04-25T10:06:19;8.40;99.90
26107;DHT22;13866;50.748;12.630;2023-04-25T10:08:45;8.40;99.90
26107;DHT22;13866;50.748;12.630;2023-04-25T10:11:12;8.40;99.90
26107;DHT22;13866;50.748;12.630;2023-04-25T10:13:50;8.50;99.90
26107;DHT22;13866;50.748;12.630;2023-04-25T10:16:15;8.50;99.90
26107;DHT22;13866;50.748;12.630;2023-04-25T10:18:41;8.40;99.90
26107;DHT22;13866;50.748;12.630;2023-04-25T10:21:07;8.30;99.90
26107;DHT22;13866;50.748;12.630;2023-04-25T10:23:32;8.10;99.90
26107;DHT22;13866;50.748;12.630;2023-04-25T10:25:59;8.10;99.90
26107;DHT22;13866;50.748;12.630;2023-04-25T10:28:25;7.90;99.90
26107;DHT22;13866;50.748;12.630;2023-04-25T10:30:58;7.80;99.90
26107;DHT22;13866;50.748;12.630;2023-04-25T10:33:37;7.70;99.90
26107;DHT22;13866;50.748;12.630;2023-04-25T10:36:33;7.60;99.90
26107;DHT22;13866;50.748;12.630;2023-04-25T10:39:06;7.60;99.90
26107;DHT22;13866;50.748;12.630;2023-04-25T10:41:46;7.50;99.90
26107;DHT22;13866;50.748;12.630;2023-04-25T10:44:13;7.50;99.90
26107;DHT22;13866;50.748;12.630;2023-04-25T10:46:39;7.60;99.90
26107;DHT22;13866;50.748;12.630;2023-04-25T10:49:08;7.80;99.90
26107;DHT22;13866;50.748;12.630;2023-04-25T10:51:34;8.00;99.90
26107;DHT22;13866;50.748;12.630;2023-04-25T10:54:06;8.20;99.90
26107;DHT22;13866;50.748;12.630;2023-04-25T10:56:33;8.40;99.90
26107;DHT22;13866;50.748;12.630;2023-04-25T10:59:14;8.70;99.90
26107;DHT22;13866;50.748;12.630;2023-04-25T11:01:48;8.80;99.90
26107;DHT22;13866;50.748;12.630;2023-04-25T11:04:24;8.90;99.90
26107;DHT22;13866;50.748;12.630;2023-04-25T11:09:54;8.60;99.90
26107;DHT22;13866;50.748;12.630;2023-04-25T11:12:19;8.40;99.90
26107;DHT22;13866;50.748;12.630;2023-04-25T11:14:45;8.30;99.90
26107;DHT22;13866;50.748;12.630;2023-04-25T11:17:10;8.30;99.90
26107;DHT22;13866;50.748;12.630;2023-04-25T11:19:36;8.30;99.90
26107;DHT22;13866;50.748;12.630;2023-04-25T11:22:02;8.20;99.90
26107;DHT22;13866;50.748;12.630;2023-04-25T11:24:33;8.30;99.90
26107;DHT22;13866;50.748;12.630;2023-04-25T11:27:00;8.30;99.90
26107;DHT22;13866;50.748;12.630;2023-04-25T11:29:32;8.30;99.90
26107;DHT22;13866;50.748;12.630;2023-04-25T11:31:58;8.20;99.90
26107;DHT22;13866;50.748;12.630;2023-04-25T11:34:24;8.20;99.90
26107;DHT22;13866;50.748;12.630;2023-04-25T11:36:51;8.20;99.90
26107;DHT22;13866;50.748;12.630;2023-04-25T11:39:21;8.00;99.90
26107;DHT22;13866;50.748;12.630;2023-04-25T11:41:47;7.90;99.90
26107;DHT22;13866;50.748;12.630;2023-04-25T11:44:16;7.80;99.90
26107;DHT22;13866;50.748;12.630;2023-04-25T11:46:42;7.70;99.90
26107;DHT22;13866;50.748;12.630;2023-04-25T11:49:08;7.40;99.90
26107;DHT22;13866;50.748;12.630;2023-04-25T11:51:44;7.40;99.90
26107;DHT22;13866;50.748;12.630;2023-04-25T11:54:10;7.30;99.90
26107;DHT22;13866;50.748;12.630;2023-04-25T11:56:35;7.20;99.90
26107;DHT22;13866;50.748;12.630;2023-04-25T11:59:03;7.20;99.90
26107;DHT22;13866;50.748;12.630;2023-04-25T12:01:33;7.10;99.90
26107;DHT22;13866;50.748;12.630;2023-04-25T12:04:19;7.10;99.90
26107;DHT22;13866;50.748;12.630;2023-04-25T12:06:46;7.20;99.90
26107;DHT22;13866;50.748;12.630;2023-04-25T12:09:14;7.10;99.90
26107;DHT22;13866;50.748;12.630;2023-04-25T12:11:42;7.00;99.90
26107;DHT22;13866;50.748;12.630;2023-04-25T12:14:09;6.90;99.90
26107;DHT22;13866;50.748;12.630;2023-04-25T12:16:45;6.70;99.90
26107;DHT22;13866;50.748;12.630;2023-04-25T12:19:14;6.60;99.90
26107;DHT22;13866;50.748;12.630;2023-04-25T12:21:40;6.50;99.90
26107;DHT22;13866;50.748;12.630;2023-04-25T12:24:35;6.30;99.90
26107;DHT22;13866;50.748;12.630;2023-04-25T12:27:06;6.20;99.90
26107;DHT22;13866;50.748;12.630;2023-04-25T12:29:34;6.10;99.90
26107;DHT22;13866;50.748;12.630;2023-04-25T12:31:59;6.00;99.90
26107;DHT22;13866;50.748;12.630;2023-04-25T12:34:27;6.00;99.90
26107;DHT22;13866;50.748;12.630;2023-04-25T12:36:53;6.00;99.90
26107;DHT22;13866;50.748;12.630;2023-04-25T12:39:22;6.10;99.90
26107;DHT22;13866;50.748;12.630;2023-04-25T12:41:49;6.10;99.90
26107;DHT22;13866;50.748;12.630;2023-04-25T12:44:15;6.20;99.90
26107;DHT22;13866;50.748;12.630;2023-04-25T12:46:41;6.20;99.90
26107;DHT22;13866;50.748;12.630;2023-04-25T12:49:07;6.20;99.90
26107;DHT22;13866;50.748;12.630;2023-04-25T12:51:34;6.10;99.90
26107;DHT22;13866;50.748;12.630;2023-04-25T12:54:00;6.10;99.90
26107;DHT22;13866;50.748;12.630;2023-04-25T12:56:27;6.10;99.90
26107;DHT22;13866;50.748;12.630;2023-04-25T12:58:52;6.10;99.90
26107;DHT22;13866;50.748;12.630;2023-04-25T13:01:19;6.00;99.90
26107;DHT22;13866;50.748;12.630;2023-04-25T13:03:44;5.90;99.90
26107;DHT22;13866;50.748;12.630;2023-04-25T13:06:10;5.90;99.90
26107;DHT22;13866;50.748;12.630;2023-04-25T13:08:36;6.00;99.90
26107;DHT22;13866;50.748;12.630;2023-04-25T13:11:02;6.10;99.90
26107;DHT22;13866;50.748;12.630;2023-04-25T13:13:29;6.30;99.90
26107;DHT22;13866;50.748;12.630;2023-04-25T13:15:54;6.50;99.90
26107;DHT22;13866;50.748;12.630;2023-04-25T13:18:20;6.60;99.90
26107;DHT22;13866;50.748;12.630;2023-04-25T13:20:45;6.80;99.90
26107;DHT22;13866;50.748;12.630;2023-04-25T13:23:11;7.00;99.90
26107;DHT22;13866;50.748;12.630;2023-04-25T13:25:37;7.20;99.90
26107;DHT22;13866;50.748;12.630;2023-04-25T13:28:02;7.30;99.90
26107;DHT22;13866;50.748;12.630;2023-04-25T13:30:28;7.40;99.90
26107;DHT22;13866;50.748;12.630;2023-04-25T13:32:54;7.50;99.90
26107;DHT22;13866;50.748;12.630;2023-04-25T13:35:22;7.60;99.90
26107;DHT22;13866;50.748;12.630;2023-04-25T13:37:47;7.80;99.90
26107;DHT22;13866;50.748;12.630;2023-04-25T13:40:13;7.70;99.90
26107;DHT22;13866;50.748;12.630;2023-04-25T13:42:38;7.70;99.90
26107;DHT22;13866;50.748;12.630;2023-04-25T13:45:04;7.70;99.90
26107;DHT22;13866;50.748;12.630;2023-04-25T13:47:30;7.60;99.90
26107;DHT22;13866;50.748;12.630;2023-04-25T13:49:56;7.70;99.90
26107;DHT22;13866;50.748;12.630;2023-04-25T13:52:22;7.80;99.90
26107;DHT22;13866;50.748;12.630;2023-04-25T13:54:49;8.00;99.90
26107;DHT22;13866;50.748;12.630;2023-04-25T13:57:27;8.10;99.90
26107;DHT22;13866;50.748;12.630;2023-04-25T13:59:53;8.20;99.90
26107;DHT22;13866;50.748;12.630;2023-04-25T14:02:18;8.50;99.90
26107;DHT22;13866;50.748;12.630;2023-04-25T14:04:44;8.80;99.90
26107;DHT22;13866;50.748;12.630;2023-04-25T14:07:10;8.90;99.90
26107;DHT22;13866;50.748;12.630;2023-04-25T14:09:36;9.10;99.90
26107;DHT22;13866;50.748;12.630;2023-04-25T14:12:02;9.30;99.90
26107;DHT22;13866;50.748;12.630;2023-04-25T14:14:27;9.50;99.90
26107;DHT22;13866;50.748;12.630;2023-04-25T14:16:53;9.50;99.90
26107;DHT22;13866;50.748;12.630;2023-04-25T14:19:20;9.50;99.90
26107;DHT22;13866;50.748;12.630;2023-04-25T14:21:46;9.40;99.90
26107;DHT22;13866;50.748;12.630;2023-04-25T14:24:13;9.20;99.90
26107;DHT22;13866;50.748;12.630;2023-04-25T14:26:38;8.90;99.90
26107;DHT22;13866;50.748;12.630;2023-04-25T14:29:05;8.50;99.90
26107;DHT22;13866;50.748;12.630;2023-04-25T14:31:34;8.20;99.90
26107;DHT22;13866;50.748;12.630;2023-04-25T14:34:18;7.90;99.90
26107;DHT22;13866;50.748;12.630;2023-04-25T14:36:45;7.40;99.90
26107;DHT22;13866;50.748;12.630;2023-04-25T14:39:11;7.10;99.90
26107;DHT22;13866;50.748;12.630;2023-04-25T14:41:37;6.90;99.90
26107;DHT22;13866;50.748;12.630;2023-04-25T14:44:03;6.80;99.90
26107;DHT22;13866;50.748;12.630;2023-04-25T14:46:28;6.70;99.90
26107;DHT22;13866;50.748;12.630;2023-04-25T14:48:54;6.70;99.90
26107;DHT22;13866;50.748;12.630;2023-04-25T14:51:21;6.60;99.90
26107;DHT22;13866;50.748;12.630;2023-04-25T14:53:46;6.70;99.90
26107;DHT22;13866;50.748;12.630;2023-04-25T14:56:12;6.80;99.90
26107;DHT22;13866;50.748;12.630;2023-04-25T14:58:38;6.90;99.90
26107;DHT22;13866;50.748;12.630;2023-04-25T15:01:04;7.00;99.90
26107;DHT22;13866;50.748;12.630;2023-04-25T15:03:29;7.00;99.90
26107;DHT22;13866;50.748;12.630;2023-04-25T15:05:55;7.00;99.90
26107;DHT22;13866;50.748;12.630;2023-04-25T15:08:21;7.00;99.90
26107;DHT22;13866;50.748;12.630;2023-04-25T15:10:46;7.10;99.90
26107;DHT22;13866;50.748;12.630;2023-04-25T15:13:12;7.20;99.90
26107;DHT22;13866;50.748;12.630;2023-04-25T15:15:38;7.40;99.90
26107;DHT22;13866;50.748;12.630;2023-04-25T15:18:03;7.50;99.90
26107;DHT22;13866;50.748;12.630;2023-04-25T15:20:29;7.70;99.90
26107;DHT22;13866;50.748;12.630;2023-04-25T15:22:55;7.90;99.90
26107;DHT22;13866;50.748;12.630;2023-04-25T15:25:20;8.10;99.90
26107;DHT22;13866;50.748;12.630;2023-04-25T15:27:52;8.30;99.90
26107;DHT22;13866;50.748;12.630;2023-04-25T15:30:18;8.20;99.90
26107;DHT22;13866;50.748;12.630;2023-04-25T15:32:45;8.10;99.90